sensor_id;sensor_type;location;lat;lon;timestamp;P1;durP1;ratioP1;P2;durP2;ratioP2
72941;SDS011;69665;55.822;37.330;2024-01-06T00:00:17;5.43;;;1.73;;
72941;SDS011;69665;55.822;37.330;2024-01-06T00:02:42;1.98;;;1.10;;
72941;SDS011;69665;55.822;37.330;2024-01-06T00:05:08;1.85;;;1.20;;
72941;SDS011;69665;55.822;37.330;2024-01-06T00:07:34;5.22;;;2.58;;
72941;SDS011;69665;55.822;37.330;2024-01-06T00:09:59;2.08;;;1.17;;
72941;SDS011;69665;55.822;37.330;2024-01-06T00:12:25;3.35;;;1.40;;
72941;SDS011;69665;55.822;37.330;2024-01-06T00:14:50;13.65;;;2.05;;
72941;SDS011;69665;55.822;37.330;2024-01-06T00:17:16;2.88;;;1.63;;
72941;SDS011;69665;55.822;37.330;2024-01-06T00:19:42;2.85;;;1.17;;
72941;SDS011;69665;55.822;37.330;2024-01-06T00:22:08;4.35;;;1.90;;
72941;SDS011;69665;55.822;37.330;2024-01-06T00:24:33;10.65;;;2.42;;
72941;SDS011;69665;55.822;37.330;2024-01-06T00:26:59;2.22;;;1.40;;
72941;SDS011;69665;55.822;37.330;2024-01-06T00:29:25;4.93;;;2.22;;
72941;SDS011;69665;55.822;37.330;2024-01-06T00:31:50;1.50;;;1.05;;
72941;SDS011;69665;55.822;37.330;2024-01-06T00:34:16;3.20;;;1.77;;
72941;SDS011;69665;55.822;37.330;2024-01-06T00:36:42;6.40;;;2.13;;
72941;SDS011;69665;55.822;37.330;2024-01-06T00:39:07;1.95;;;1.25;;
72941;SDS011;69665;55.822;37.330;2024-01-06T00:41:33;3.78;;;1.85;;
72941;SDS011;69665;55.822;37.330;2024-01-06T00:43:59;2.75;;;1.63;;
72941;SDS011;69665;55.822;37.330;2024-01-06T00:46:24;10.02;;;2.38;;
72941;SDS011;69665;55.822;37.330;2024-01-06T00:48:50;4.90;;;2.25;;
72941;SDS011;69665;55.822;37.330;2024-01-06T00:51:15;4.00;;;1.98;;
72941;SDS011;69665;55.822;37.330;2024-01-06T00:53:41;3.60;;;1.55;;
72941;SDS011;69665;55.822;37.330;2024-01-06T00:56:06;3.08;;;1.90;;
72941;SDS011;69665;55.822;37.330;2024-01-06T00:58:32;3.40;;;1.45;;
72941;SDS011;69665;55.822;37.330;2024-01-06T01:00:57;2.53;;;1.20;;
72941;SDS011;69665;55.822;37.330;2024-01-06T01:03:23;6.68;;;2.45;;
72941;SDS011;69665;55.822;37.330;2024-01-06T01:05:49;4.03;;;1.73;;
72941;SDS011;69665;55.822;37.330;2024-01-06T01:08:14;4.97;;;2.80;;
72941;SDS011;69665;55.822;37.330;2024-01-06T01:10:40;7.22;;;2.30;;
72941;SDS011;69665;55.822;37.330;2024-01-06T01:13:05;4.45;;;1.92;;
72941;SDS011;69665;55.822;37.330;2024-01-06T01:15:31;3.75;;;1.08;;
72941;SDS011;69665;55.822;37.330;2024-01-06T01:17:57;4.68;;;1.20;;
72941;SDS011;69665;55.822;37.330;2024-01-06T01:20:22;5.13;;;2.25;;
72941;SDS011;69665;55.822;37.330;2024-01-06T01:22:48;11.45;;;2.58;;
72941;SDS011;69665;55.822;37.330;2024-01-06T01:25:13;5.80;;;1.83;;
72941;SDS011;69665;55.822;37.330;2024-01-06T01:27:39;6.35;;;1.95;;
72941;SDS011;69665;55.822;37.330;2024-01-06T01:30:05;5.70;;;2.65;;
72941;SDS011;69665;55.822;37.330;2024-01-06T01:32:32;4.72;;;1.83;;
72941;SDS011;69665;55.822;37.330;2024-01-06T01:34:57;6.38;;;3.00;;
72941;SDS011;69665;55.822;37.330;2024-01-06T01:37:23;7.00;;;3.15;;
72941;SDS011;69665;55.822;37.330;2024-01-06T01:39:48;10.52;;;1.98;;
72941;SDS011;69665;55.822;37.330;2024-01-06T01:42:14;4.20;;;2.13;;
72941;SDS011;69665;55.822;37.330;2024-01-06T01:44:40;6.95;;;1.80;;
72941;SDS011;69665;55.822;37.330;2024-01-06T01:47:05;3.55;;;1.77;;
72941;SDS011;69665;55.822;37.330;2024-01-06T01:49:32;5.80;;;2.20;;
72941;SDS011;69665;55.822;37.330;2024-01-06T01:51:58;2.22;;;1.20;;
72941;SDS011;69665;55.822;37.330;2024-01-06T01:54:24;4.80;;;1.88;;
72941;SDS011;69665;55.822;37.330;2024-01-06T01:56:50;1.30;;;0.80;;
72941;SDS011;69665;55.822;37.330;2024-01-06T01:59:17;6.95;;;2.00;;
72941;SDS011;69665;55.822;37.330;2024-01-06T02:01:44;4.80;;;1.52;;
72941;SDS011;69665;55.822;37.330;2024-01-06T02:04:10;8.00;;;2.15;;
72941;SDS011;69665;55.822;37.330;2024-01-06T02:06:35;4.68;;;1.98;;
72941;SDS011;69665;55.822;37.330;2024-01-06T02:09:01;7.05;;;2.40;;
72941;SDS011;69665;55.822;37.330;2024-01-06T02:11:27;5.15;;;2.65;;
72941;SDS011;69665;55.822;37.330;2024-01-06T02:13:53;3.33;;;1.50;;
72941;SDS011;69665;55.822;37.330;2024-01-06T02:16:20;5.10;;;2.10;;
72941;SDS011;69665;55.822;37.330;2024-01-06T02:18:45;6.20;;;2.85;;
72941;SDS011;69665;55.822;37.330;2024-01-06T02:21:15;5.50;;;1.63;;
72941;SDS011;69665;55.822;37.330;2024-01-06T02:23:41;9.98;;;2.30;;
72941;SDS011;69665;55.822;37.330;2024-01-06T02:26:07;4.60;;;2.17;;
72941;SDS011;69665;55.822;37.330;2024-01-06T02:28:33;13.98;;;2.63;;
72941;SDS011;69665;55.822;37.330;2024-01-06T02:30:58;7.07;;;2.92;;
72941;SDS011;69665;55.822;37.330;2024-01-06T02:33:24;3.80;;;1.63;;
72941;SDS011;69665;55.822;37.330;2024-01-06T02:35:50;2.85;;;1.80;;
72941;SDS011;69665;55.822;37.330;2024-01-06T02:38:16;7.60;;;1.83;;
72941;SDS011;69665;55.822;37.330;2024-01-06T02:40:41;5.28;;;2.42;;
72941;SDS011;69665;55.822;37.330;2024-01-06T02:43:08;7.60;;;2.60;;
72941;SDS011;69665;55.822;37.330;2024-01-06T02:45:35;8.32;;;2.45;;
72941;SDS011;69665;55.822;37.330;2024-01-06T02:48:00;5.13;;;2.35;;
72941;SDS011;69665;55.822;37.330;2024-01-06T02:50:26;3.55;;;2.08;;
72941;SDS011;69665;55.822;37.330;2024-01-06T02:52:51;6.75;;;2.85;;
72941;SDS011;69665;55.822;37.330;2024-01-06T02:55:17;9.52;;;3.15;;
72941;SDS011;69665;55.822;37.330;2024-01-06T02:57:44;4.80;;;2.47;;
72941;SDS011;69665;55.822;37.330;2024-01-06T03:00:09;3.95;;;2.45;;
72941;SDS011;69665;55.822;37.330;2024-01-06T03:02:35;7.45;;;2.55;;
72941;SDS011;69665;55.822;37.330;2024-01-06T03:05:02;7.68;;;2.75;;
72941;SDS011;69665;55.822;37.330;2024-01-06T03:07:31;7.05;;;2.58;;
72941;SDS011;69665;55.822;37.330;2024-01-06T03:09:57;5.53;;;2.55;;
72941;SDS011;69665;55.822;37.330;2024-01-06T03:12:22;6.63;;;2.72;;
72941;SDS011;69665;55.822;37.330;2024-01-06T03:14:48;12.98;;;3.50;;
72941;SDS011;69665;55.822;37.330;2024-01-06T03:17:14;8.30;;;2.70;;
72941;SDS011;69665;55.822;37.330;2024-01-06T03:19:39;7.13;;;2.72;;
72941;SDS011;69665;55.822;37.330;2024-01-06T03:22:05;4.88;;;2.42;;
72941;SDS011;69665;55.822;37.330;2024-01-06T03:24:31;9.10;;;3.05;;
72941;SDS011;69665;55.822;37.330;2024-01-06T03:26:56;6.72;;;2.88;;
72941;SDS011;69665;55.822;37.330;2024-01-06T03:29:22;5.82;;;2.13;;
72941;SDS011;69665;55.822;37.330;2024-01-06T03:31:48;6.18;;;2.15;;
72941;SDS011;69665;55.822;37.330;2024-01-06T03:34:13;7.05;;;2.30;;
72941;SDS011;69665;55.822;37.330;2024-01-06T03:36:39;8.63;;;4.10;;
72941;SDS011;69665;55.822;37.330;2024-01-06T03:39:05;6.05;;;2.53;;
72941;SDS011;69665;55.822;37.330;2024-01-06T03:41:32;7.38;;;2.17;;
72941;SDS011;69665;55.822;37.330;2024-01-06T03:43:57;5.25;;;3.10;;
72941;SDS011;69665;55.822;37.330;2024-01-06T03:46:23;8.20;;;3.13;;
72941;SDS011;69665;55.822;37.330;2024-01-06T03:48:49;5.97;;;3.13;;
72941;SDS011;69665;55.822;37.330;2024-01-06T03:51:15;6.55;;;2.35;;
72941;SDS011;69665;55.822;37.330;2024-01-06T03:53:41;5.43;;;2.10;;
72941;SDS011;69665;55.822;37.330;2024-01-06T03:56:07;5.68;;;2.90;;
72941;SDS011;69665;55.822;37.330;2024-01-06T03:58:33;11.68;;;2.92;;
72941;SDS011;69665;55.822;37.330;2024-01-06T04:00:59;8.43;;;3.00;;
72941;SDS011;69665;55.822;37.330;2024-01-06T04:03:24;12.43;;;2.47;;
72941;SDS011;69665;55.822;37.330;2024-01-06T04:05:50;7.07;;;2.67;;
72941;SDS011;69665;55.822;37.330;2024-01-06T04:08:16;7.88;;;3.30;;
72941;SDS011;69665;55.822;37.330;2024-01-06T04:10:42;5.43;;;2.40;;
72941;SDS011;69665;55.822;37.330;2024-01-06T04:13:08;7.45;;;2.45;;
72941;SDS011;69665;55.822;37.330;2024-01-06T04:15:36;13.05;;;2.70;;
72941;SDS011;69665;55.822;37.330;2024-01-06T04:18:02;7.20;;;2.75;;
72941;SDS011;69665;55.822;37.330;2024-01-06T04:20:29;11.23;;;3.13;;
72941;SDS011;69665;55.822;37.330;2024-01-06T04:22:55;10.13;;;3.05;;
72941;SDS011;69665;55.822;37.330;2024-01-06T04:25:21;7.00;;;2.58;;
72941;SDS011;69665;55.822;37.330;2024-01-06T04:27:47;6.18;;;2.35;;
72941;SDS011;69665;55.822;37.330;2024-01-06T04:30:14;4.53;;;2.13;;
72941;SDS011;69665;55.822;37.330;2024-01-06T04:32:40;8.10;;;3.10;;
72941;SDS011;69665;55.822;37.330;2024-01-06T04:35:06;8.27;;;2.72;;
72941;SDS011;69665;55.822;37.330;2024-01-06T04:37:32;10.05;;;3.53;;
72941;SDS011;69665;55.822;37.330;2024-01-06T04:39:57;4.65;;;3.08;;
72941;SDS011;69665;55.822;37.330;2024-01-06T04:42:23;4.40;;;3.03;;
72941;SDS011;69665;55.822;37.330;2024-01-06T04:44:49;6.22;;;2.70;;
72941;SDS011;69665;55.822;37.330;2024-01-06T04:47:15;14.13;;;3.67;;
72941;SDS011;69665;55.822;37.330;2024-01-06T04:49:43;8.60;;;3.20;;
72941;SDS011;69665;55.822;37.330;2024-01-06T04:52:12;11.90;;;3.00;;
72941;SDS011;69665;55.822;37.330;2024-01-06T04:54:38;8.57;;;3.65;;
72941;SDS011;69665;55.822;37.330;2024-01-06T04:57:03;11.18;;;3.28;;
72941;SDS011;69665;55.822;37.330;2024-01-06T04:59:29;6.32;;;2.17;;
72941;SDS011;69665;55.822;37.330;2024-01-06T05:01:55;8.75;;;4.22;;
72941;SDS011;69665;55.822;37.330;2024-01-06T05:04:22;10.23;;;2.97;;
72941;SDS011;69665;55.822;37.330;2024-01-06T05:06:48;11.73;;;3.63;;
72941;SDS011;69665;55.822;37.330;2024-01-06T05:09:14;8.57;;;3.05;;
72941;SDS011;69665;55.822;37.330;2024-01-06T05:11:40;7.78;;;3.03;;
72941;SDS011;69665;55.822;37.330;2024-01-06T05:14:08;10.32;;;1.98;;
72941;SDS011;69665;55.822;37.330;2024-01-06T05:16:34;7.88;;;3.45;;
72941;SDS011;69665;55.822;37.330;2024-01-06T05:19:00;4.78;;;2.15;;
72941;SDS011;69665;55.822;37.330;2024-01-06T05:21:25;4.82;;;2.15;;
72941;SDS011;69665;55.822;37.330;2024-01-06T05:23:51;6.05;;;1.73;;
72941;SDS011;69665;55.822;37.330;2024-01-06T05:26:16;9.18;;;3.95;;
72941;SDS011;69665;55.822;37.330;2024-01-06T05:28:42;6.20;;;3.17;;
72941;SDS011;69665;55.822;37.330;2024-01-06T05:31:08;12.45;;;2.65;;
72941;SDS011;69665;55.822;37.330;2024-01-06T05:33:33;6.40;;;2.92;;
72941;SDS011;69665;55.822;37.330;2024-01-06T05:35:59;6.40;;;2.38;;
72941;SDS011;69665;55.822;37.330;2024-01-06T05:38:25;8.70;;;3.45;;
72941;SDS011;69665;55.822;37.330;2024-01-06T05:40:50;7.88;;;3.63;;
72941;SDS011;69665;55.822;37.330;2024-01-06T05:43:16;5.50;;;2.33;;
72941;SDS011;69665;55.822;37.330;2024-01-06T05:45:41;8.60;;;3.90;;
72941;SDS011;69665;55.822;37.330;2024-01-06T05:48:08;8.25;;;3.08;;
72941;SDS011;69665;55.822;37.330;2024-01-06T05:50:34;7.93;;;3.13;;
72941;SDS011;69665;55.822;37.330;2024-01-06T05:53:00;11.57;;;5.07;;
72941;SDS011;69665;55.822;37.330;2024-01-06T05:55:25;5.95;;;3.60;;
72941;SDS011;69665;55.822;37.330;2024-01-06T05:57:51;10.30;;;3.95;;
72941;SDS011;69665;55.822;37.330;2024-01-06T06:00:17;10.48;;;3.83;;
72941;SDS011;69665;55.822;37.330;2024-01-06T06:02:42;6.90;;;3.53;;
72941;SDS011;69665;55.822;37.330;2024-01-06T06:05:09;6.72;;;2.50;;
72941;SDS011;69665;55.822;37.330;2024-01-06T06:07:35;12.70;;;2.50;;
72941;SDS011;69665;55.822;37.330;2024-01-06T06:10:05;7.53;;;2.97;;
72941;SDS011;69665;55.822;37.330;2024-01-06T06:12:35;12.75;;;4.10;;
72941;SDS011;69665;55.822;37.330;2024-01-06T06:15:01;4.47;;;2.05;;
72941;SDS011;69665;55.822;37.330;2024-01-06T06:17:29;2.80;;;0.90;;
72941;SDS011;69665;55.822;37.330;2024-01-06T06:19:56;10.27;;;3.55;;
72941;SDS011;69665;55.822;37.330;2024-01-06T06:22:22;6.32;;;3.67;;
72941;SDS011;69665;55.822;37.330;2024-01-06T06:24:48;4.85;;;2.60;;
72941;SDS011;69665;55.822;37.330;2024-01-06T06:27:14;3.47;;;2.15;;
72941;SDS011;69665;55.822;37.330;2024-01-06T06:29:39;11.02;;;4.32;;
72941;SDS011;69665;55.822;37.330;2024-01-06T06:32:05;8.02;;;3.47;;
72941;SDS011;69665;55.822;37.330;2024-01-06T06:34:31;10.88;;;4.00;;
72941;SDS011;69665;55.822;37.330;2024-01-06T06:36:56;11.02;;;3.55;;
72941;SDS011;69665;55.822;37.330;2024-01-06T06:39:22;9.23;;;2.92;;
72941;SDS011;69665;55.822;37.330;2024-01-06T06:41:48;17.65;;;3.85;;
72941;SDS011;69665;55.822;37.330;2024-01-06T06:44:13;6.43;;;2.75;;
72941;SDS011;69665;55.822;37.330;2024-01-06T06:46:39;5.75;;;2.80;;
72941;SDS011;69665;55.822;37.330;2024-01-06T06:49:05;13.93;;;3.92;;
72941;SDS011;69665;55.822;37.330;2024-01-06T06:51:30;7.70;;;4.10;;
72941;SDS011;69665;55.822;37.330;2024-01-06T06:53:56;10.93;;;3.40;;
72941;SDS011;69665;55.822;37.330;2024-01-06T06:56:22;7.85;;;3.20;;
72941;SDS011;69665;55.822;37.330;2024-01-06T06:58:48;12.82;;;3.80;;
72941;SDS011;69665;55.822;37.330;2024-01-06T07:01:14;7.18;;;2.53;;
72941;SDS011;69665;55.822;37.330;2024-01-06T07:03:41;11.80;;;3.63;;
72941;SDS011;69665;55.822;37.330;2024-01-06T07:06:07;14.55;;;4.60;;
72941;SDS011;69665;55.822;37.330;2024-01-06T07:08:32;7.72;;;3.45;;
72941;SDS011;69665;55.822;37.330;2024-01-06T07:10:58;6.65;;;2.72;;
72941;SDS011;69665;55.822;37.330;2024-01-06T07:13:24;6.72;;;4.00;;
72941;SDS011;69665;55.822;37.330;2024-01-06T07:15:49;8.88;;;3.50;;
72941;SDS011;69665;55.822;37.330;2024-01-06T07:18:15;6.43;;;3.03;;
72941;SDS011;69665;55.822;37.330;2024-01-06T07:20:41;11.38;;;3.53;;
72941;SDS011;69665;55.822;37.330;2024-01-06T07:23:06;6.65;;;3.67;;
72941;SDS011;69665;55.822;37.330;2024-01-06T07:25:32;11.95;;;4.35;;
72941;SDS011;69665;55.822;37.330;2024-01-06T07:27:58;13.25;;;3.83;;
72941;SDS011;69665;55.822;37.330;2024-01-06T07:30:23;6.28;;;3.60;;
72941;SDS011;69665;55.822;37.330;2024-01-06T07:32:49;6.82;;;4.13;;
72941;SDS011;69665;55.822;37.330;2024-01-06T07:35:17;8.85;;;3.28;;
72941;SDS011;69665;55.822;37.330;2024-01-06T07:37:43;8.00;;;3.15;;
72941;SDS011;69665;55.822;37.330;2024-01-06T07:40:09;10.63;;;3.70;;
72941;SDS011;69665;55.822;37.330;2024-01-06T07:42:35;10.80;;;4.47;;
72941;SDS011;69665;55.822;37.330;2024-01-06T07:45:00;6.88;;;2.67;;
72941;SDS011;69665;55.822;37.330;2024-01-06T07:47:30;11.32;;;4.75;;
72941;SDS011;69665;55.822;37.330;2024-01-06T07:49:55;6.88;;;4.13;;
72941;SDS011;69665;55.822;37.330;2024-01-06T07:52:22;12.02;;;3.53;;
72941;SDS011;69665;55.822;37.330;2024-01-06T07:54:48;8.55;;;3.88;;
72941;SDS011;69665;55.822;37.330;2024-01-06T07:57:13;10.73;;;3.03;;
72941;SDS011;69665;55.822;37.330;2024-01-06T07:59:40;10.38;;;3.53;;
72941;SDS011;69665;55.822;37.330;2024-01-06T08:02:06;8.90;;;4.22;;
72941;SDS011;69665;55.822;37.330;2024-01-06T08:04:32;12.85;;;5.10;;
72941;SDS011;69665;55.822;37.330;2024-01-06T08:06:58;13.55;;;4.63;;
72941;SDS011;69665;55.822;37.330;2024-01-06T08:09:23;4.80;;;2.95;;
72941;SDS011;69665;55.822;37.330;2024-01-06T08:11:49;8.80;;;4.00;;
72941;SDS011;69665;55.822;37.330;2024-01-06T08:14:15;9.45;;;4.05;;
72941;SDS011;69665;55.822;37.330;2024-01-06T08:16:43;14.15;;;5.13;;
72941;SDS011;69665;55.822;37.330;2024-01-06T08:19:09;8.90;;;3.25;;
72941;SDS011;69665;55.822;37.330;2024-01-06T08:21:35;7.72;;;3.53;;
72941;SDS011;69665;55.822;37.330;2024-01-06T08:24:01;8.77;;;4.20;;
72941;SDS011;69665;55.822;37.330;2024-01-06T08:26:27;10.68;;;4.75;;
72941;SDS011;69665;55.822;37.330;2024-01-06T08:28:53;12.77;;;4.32;;
72941;SDS011;69665;55.822;37.330;2024-01-06T08:31:19;14.45;;;5.43;;
72941;SDS011;69665;55.822;37.330;2024-01-06T08:33:44;10.82;;;4.45;;
72941;SDS011;69665;55.822;37.330;2024-01-06T08:36:10;14.10;;;4.78;;
72941;SDS011;69665;55.822;37.330;2024-01-06T08:38:36;11.77;;;4.70;;
72941;SDS011;69665;55.822;37.330;2024-01-06T08:41:02;11.68;;;3.85;;
72941;SDS011;69665;55.822;37.330;2024-01-06T08:43:27;15.23;;;5.78;;
72941;SDS011;69665;55.822;37.330;2024-01-06T08:45:53;11.68;;;4.53;;
72941;SDS011;69665;55.822;37.330;2024-01-06T08:48:19;12.48;;;5.00;;
72941;SDS011;69665;55.822;37.330;2024-01-06T08:50:44;10.77;;;4.78;;
72941;SDS011;69665;55.822;37.330;2024-01-06T08:53:11;8.90;;;3.42;;
72941;SDS011;69665;55.822;37.330;2024-01-06T08:55:37;10.07;;;4.35;;
72941;SDS011;69665;55.822;37.330;2024-01-06T08:58:03;15.43;;;4.93;;
72941;SDS011;69665;55.822;37.330;2024-01-06T09:00:28;11.65;;;4.97;;
72941;SDS011;69665;55.822;37.330;2024-01-06T09:02:54;12.55;;;5.20;;
72941;SDS011;69665;55.822;37.330;2024-01-06T09:05:20;16.10;;;6.10;;
72941;SDS011;69665;55.822;37.330;2024-01-06T09:07:46;13.38;;;5.57;;
72941;SDS011;69665;55.822;37.330;2024-01-06T09:10:18;13.15;;;4.90;;
72941;SDS011;69665;55.822;37.330;2024-01-06T09:12:44;12.93;;;6.15;;
72941;SDS011;69665;55.822;37.330;2024-01-06T09:15:10;13.93;;;7.35;;
72941;SDS011;69665;55.822;37.330;2024-01-06T09:17:35;16.48;;;4.88;;
72941;SDS011;69665;55.822;37.330;2024-01-06T09:20:01;12.57;;;5.00;;
72941;SDS011;69665;55.822;37.330;2024-01-06T09:22:30;8.98;;;4.85;;
72941;SDS011;69665;55.822;37.330;2024-01-06T09:24:55;14.85;;;5.32;;
72941;SDS011;69665;55.822;37.330;2024-01-06T09:27:21;15.63;;;5.65;;
72941;SDS011;69665;55.822;37.330;2024-01-06T09:29:46;11.73;;;5.53;;
72941;SDS011;69665;55.822;37.330;2024-01-06T09:32:13;10.20;;;4.30;;
72941;SDS011;69665;55.822;37.330;2024-01-06T09:34:38;15.07;;;6.95;;
72941;SDS011;69665;55.822;37.330;2024-01-06T09:37:04;10.68;;;3.88;;
72941;SDS011;69665;55.822;37.330;2024-01-06T09:39:30;25.00;;;7.00;;
72941;SDS011;69665;55.822;37.330;2024-01-06T09:41:57;16.90;;;6.82;;
72941;SDS011;69665;55.822;37.330;2024-01-06T09:44:23;12.45;;;5.72;;
72941;SDS011;69665;55.822;37.330;2024-01-06T09:46:49;14.13;;;6.32;;
72941;SDS011;69665;55.822;37.330;2024-01-06T09:49:22;9.98;;;4.53;;
72941;SDS011;69665;55.822;37.330;2024-01-06T09:51:49;19.33;;;6.82;;
72941;SDS011;69665;55.822;37.330;2024-01-06T09:54:21;15.77;;;5.63;;
72941;SDS011;69665;55.822;37.330;2024-01-06T09:56:49;11.98;;;5.10;;
72941;SDS011;69665;55.822;37.330;2024-01-06T09:59:15;15.32;;;6.13;;
72941;SDS011;69665;55.822;37.330;2024-01-06T10:01:41;18.75;;;5.53;;
72941;SDS011;69665;55.822;37.330;2024-01-06T10:04:07;18.40;;;7.68;;
72941;SDS011;69665;55.822;37.330;2024-01-06T10:06:33;20.52;;;6.18;;
72941;SDS011;69665;55.822;37.330;2024-01-06T10:08:58;17.17;;;5.30;;
72941;SDS011;69665;55.822;37.330;2024-01-06T10:11:25;11.55;;;5.95;;
72941;SDS011;69665;55.822;37.330;2024-01-06T10:13:52;16.50;;;6.50;;
72941;SDS011;69665;55.822;37.330;2024-01-06T10:16:19;20.83;;;6.53;;
72941;SDS011;69665;55.822;37.330;2024-01-06T10:18:45;15.02;;;5.88;;
72941;SDS011;69665;55.822;37.330;2024-01-06T10:21:11;15.55;;;6.57;;
72941;SDS011;69665;55.822;37.330;2024-01-06T10:23:39;17.52;;;7.38;;
72941;SDS011;69665;55.822;37.330;2024-01-06T10:26:05;13.57;;;6.10;;
72941;SDS011;69665;55.822;37.330;2024-01-06T10:28:30;13.05;;;5.68;;
72941;SDS011;69665;55.822;37.330;2024-01-06T10:30:56;16.05;;;5.60;;
72941;SDS011;69665;55.822;37.330;2024-01-06T10:33:23;13.98;;;5.85;;
72941;SDS011;69665;55.822;37.330;2024-01-06T10:35:50;18.75;;;7.00;;
72941;SDS011;69665;55.822;37.330;2024-01-06T10:38:15;17.23;;;6.97;;
72941;SDS011;69665;55.822;37.330;2024-01-06T10:40:55;16.67;;;5.88;;
72941;SDS011;69665;55.822;37.330;2024-01-06T10:43:34;16.23;;;6.72;;
72941;SDS011;69665;55.822;37.330;2024-01-06T10:46:02;12.55;;;5.60;;
72941;SDS011;69665;55.822;37.330;2024-01-06T10:48:30;15.07;;;6.72;;
72941;SDS011;69665;55.822;37.330;2024-01-06T10:50:58;29.40;;;6.57;;
72941;SDS011;69665;55.822;37.330;2024-01-06T10:53:26;22.33;;;7.00;;
72941;SDS011;69665;55.822;37.330;2024-01-06T10:55:52;15.98;;;6.32;;
72941;SDS011;69665;55.822;37.330;2024-01-06T10:58:18;13.82;;;6.47;;
72941;SDS011;69665;55.822;37.330;2024-01-06T11:00:45;17.75;;;6.15;;
72941;SDS011;69665;55.822;37.330;2024-01-06T11:03:11;20.70;;;7.00;;
72941;SDS011;69665;55.822;37.330;2024-01-06T11:05:39;17.63;;;7.93;;
72941;SDS011;69665;55.822;37.330;2024-01-06T11:08:06;20.45;;;7.20;;
72941;SDS011;69665;55.822;37.330;2024-01-06T11:10:32;16.42;;;5.90;;
72941;SDS011;69665;55.822;37.330;2024-01-06T11:15:40;15.55;;;6.10;;
72941;SDS011;69665;55.822;37.330;2024-01-06T11:18:36;16.35;;;6.70;;
72941;SDS011;69665;55.822;37.330;2024-01-06T11:26:31;18.92;;;8.70;;
72941;SDS011;69665;55.822;37.330;2024-01-06T11:28:57;14.65;;;6.60;;
72941;SDS011;69665;55.822;37.330;2024-01-06T11:31:28;18.77;;;5.93;;
72941;SDS011;69665;55.822;37.330;2024-01-06T11:33:56;20.05;;;7.28;;
72941;SDS011;69665;55.822;37.330;2024-01-06T11:36:22;16.05;;;6.82;;
72941;SDS011;69665;55.822;37.330;2024-01-06T11:38:48;19.20;;;8.60;;
72941;SDS011;69665;55.822;37.330;2024-01-06T11:44:13;16.70;;;6.78;;
72941;SDS011;69665;55.822;37.330;2024-01-06T11:46:38;30.27;;;8.68;;
72941;SDS011;69665;55.822;37.330;2024-01-06T11:49:07;19.52;;;8.32;;
72941;SDS011;69665;55.822;37.330;2024-01-06T11:51:35;22.38;;;8.18;;
72941;SDS011;69665;55.822;37.330;2024-01-06T11:54:01;19.52;;;7.53;;
72941;SDS011;69665;55.822;37.330;2024-01-06T11:56:26;20.48;;;9.30;;
72941;SDS011;69665;55.822;37.330;2024-01-06T11:58:52;20.85;;;8.88;;
72941;SDS011;69665;55.822;37.330;2024-01-06T12:01:17;20.27;;;8.82;;
72941;SDS011;69665;55.822;37.330;2024-01-06T12:03:43;26.00;;;8.80;;
72941;SDS011;69665;55.822;37.330;2024-01-06T12:06:09;18.48;;;7.28;;
72941;SDS011;69665;55.822;37.330;2024-01-06T12:08:35;19.83;;;7.45;;
72941;SDS011;69665;55.822;37.330;2024-01-06T12:11:03;17.13;;;7.05;;
72941;SDS011;69665;55.822;37.330;2024-01-06T12:13:30;20.25;;;8.05;;
72941;SDS011;69665;55.822;37.330;2024-01-06T12:15:56;16.40;;;6.35;;
72941;SDS011;69665;55.822;37.330;2024-01-06T12:18:22;21.73;;;7.10;;
72941;SDS011;69665;55.822;37.330;2024-01-06T12:20:50;20.65;;;6.75;;
72941;SDS011;69665;55.822;37.330;2024-01-06T12:23:28;18.48;;;8.48;;
72941;SDS011;69665;55.822;37.330;2024-01-06T12:25:55;18.30;;;7.88;;
72941;SDS011;69665;55.822;37.330;2024-01-06T12:28:21;17.88;;;7.90;;
72941;SDS011;69665;55.822;37.330;2024-01-06T12:30:47;17.60;;;7.40;;
72941;SDS011;69665;55.822;37.330;2024-01-06T12:33:15;18.52;;;7.82;;
72941;SDS011;69665;55.822;37.330;2024-01-06T12:35:41;17.55;;;7.88;;
72941;SDS011;69665;55.822;37.330;2024-01-06T12:38:10;24.42;;;8.93;;
72941;SDS011;69665;55.822;37.330;2024-01-06T12:40:36;16.38;;;8.80;;
72941;SDS011;69665;55.822;37.330;2024-01-06T12:43:03;25.80;;;9.82;;
72941;SDS011;69665;55.822;37.330;2024-01-06T12:45:29;19.67;;;8.43;;
72941;SDS011;69665;55.822;37.330;2024-01-06T12:47:55;20.08;;;8.75;;
72941;SDS011;69665;55.822;37.330;2024-01-06T12:50:21;21.17;;;8.27;;
72941;SDS011;69665;55.822;37.330;2024-01-06T12:52:46;18.80;;;8.27;;
72941;SDS011;69665;55.822;37.330;2024-01-06T12:55:12;19.17;;;9.10;;
72941;SDS011;69665;55.822;37.330;2024-01-06T12:57:38;21.30;;;8.77;;
72941;SDS011;69665;55.822;37.330;2024-01-06T13:00:05;17.42;;;7.05;;
72941;SDS011;69665;55.822;37.330;2024-01-06T13:02:33;19.15;;;9.07;;
72941;SDS011;69665;55.822;37.330;2024-01-06T13:05:00;20.75;;;7.80;;
72941;SDS011;69665;55.822;37.330;2024-01-06T13:07:27;16.98;;;8.07;;
72941;SDS011;69665;55.822;37.330;2024-01-06T13:09:53;20.50;;;7.80;;
72941;SDS011;69665;55.822;37.330;2024-01-06T13:12:19;16.17;;;7.53;;
72941;SDS011;69665;55.822;37.330;2024-01-06T13:14:45;23.00;;;8.90;;
72941;SDS011;69665;55.822;37.330;2024-01-06T13:17:15;23.95;;;8.90;;
72941;SDS011;69665;55.822;37.330;2024-01-06T13:19:41;24.58;;;8.05;;
72941;SDS011;69665;55.822;37.330;2024-01-06T13:22:07;16.70;;;7.55;;
72941;SDS011;69665;55.822;37.330;2024-01-06T13:24:32;19.80;;;8.38;;
72941;SDS011;69665;55.822;37.330;2024-01-06T13:26:58;23.77;;;8.48;;
72941;SDS011;69665;55.822;37.330;2024-01-06T13:29:28;16.60;;;8.48;;
72941;SDS011;69665;55.822;37.330;2024-01-06T13:31:55;14.80;;;6.32;;
72941;SDS011;69665;55.822;37.330;2024-01-06T13:34:22;20.95;;;9.15;;
72941;SDS011;69665;55.822;37.330;2024-01-06T13:36:48;22.52;;;9.73;;
72941;SDS011;69665;55.822;37.330;2024-01-06T13:39:13;23.13;;;9.30;;
72941;SDS011;69665;55.822;37.330;2024-01-06T13:41:48;20.42;;;8.90;;
72941;SDS011;69665;55.822;37.330;2024-01-06T13:44:14;21.45;;;9.40;;
72941;SDS011;69665;55.822;37.330;2024-01-06T13:46:41;23.80;;;10.73;;
72941;SDS011;69665;55.822;37.330;2024-01-06T13:49:12;29.83;;;8.82;;
72941;SDS011;69665;55.822;37.330;2024-01-06T13:51:41;22.77;;;9.13;;
72941;SDS011;69665;55.822;37.330;2024-01-06T13:54:07;23.80;;;9.57;;
72941;SDS011;69665;55.822;37.330;2024-01-06T13:56:33;22.33;;;9.18;;
72941;SDS011;69665;55.822;37.330;2024-01-06T13:58:59;19.63;;;10.02;;
72941;SDS011;69665;55.822;37.330;2024-01-06T14:01:24;18.83;;;8.88;;
72941;SDS011;69665;55.822;37.330;2024-01-06T14:03:50;19.75;;;8.27;;
72941;SDS011;69665;55.822;37.330;2024-01-06T14:06:16;25.05;;;10.55;;
72941;SDS011;69665;55.822;37.330;2024-01-06T14:08:43;27.35;;;9.88;;
72941;SDS011;69665;55.822;37.330;2024-01-06T14:11:11;22.38;;;10.18;;
72941;SDS011;69665;55.822;37.330;2024-01-06T14:13:36;24.45;;;9.27;;
72941;SDS011;69665;55.822;37.330;2024-01-06T14:16:02;22.08;;;9.80;;
72941;SDS011;69665;55.822;37.330;2024-01-06T14:18:28;23.25;;;9.43;;
72941;SDS011;69665;55.822;37.330;2024-01-06T14:20:54;17.05;;;8.18;;
72941;SDS011;69665;55.822;37.330;2024-01-06T14:23:21;28.65;;;10.95;;
72941;SDS011;69665;55.822;37.330;2024-01-06T14:25:46;22.55;;;9.07;;
72941;SDS011;69665;55.822;37.330;2024-01-06T14:28:12;22.88;;;8.90;;
72941;SDS011;69665;55.822;37.330;2024-01-06T14:30:38;21.27;;;9.23;;
72941;SDS011;69665;55.822;37.330;2024-01-06T14:33:04;22.73;;;8.73;;